createdAt,value
2022-11-24T00:29:08.720Z,33.75
2022-11-24T00:32:36.987Z,42.00
2022-11-24T00:35:40.434Z,40.50
2022-11-24T00:39:41.553Z,40.00
2022-11-24T00:42:45.355Z,34.50
2022-11-24T00:45:48.912Z,35.50
2022-11-24T00:48:55.065Z,36.25
2022-11-24T00:51:58.972Z,38.50
2022-11-24T00:56:27.249Z,43.75
2022-11-24T01:26:15.475Z,35.25
2022-11-24T01:33:30.180Z,29.25
2022-11-24T01:36:32.796Z,42.25
2022-11-24T01:39:36.319Z,41.00
2022-11-24T01:42:50.764Z,33.25
2022-11-24T01:45:54.812Z,29.75
2022-11-24T01:49:13.718Z,43.00
2022-11-24T01:52:22.533Z,29.50
2022-11-24T01:55:32.914Z,46.00
2022-11-24T01:58:41.291Z,32.75
2022-11-24T02:01:44.314Z,36.00
2022-11-24T02:05:20.406Z,44.75
2022-11-24T02:08:42.365Z,32.00
2022-11-24T02:20:18.583Z,32.25
2022-11-24T02:20:21.777Z,34.75
2022-11-24T02:23:50.265Z,48.25
2022-11-24T02:26:53.131Z,37.25
2022-11-24T02:29:56.564Z,34.25
2022-11-24T02:32:59.560Z,29.50
2022-11-24T02:36:02.770Z,34.00
2022-11-24T02:39:15.545Z,30.75
2022-11-24T02:42:18.745Z,37.75
2022-11-24T02:45:22.397Z,33.00
2022-11-24T02:48:25.414Z,36.00
2022-11-24T02:51:28.661Z,24.75
2022-11-24T02:54:32.063Z,53.00
2022-11-24T02:57:34.910Z,25.50
2022-11-24T03:00:38.033Z,37.25
2022-11-24T03:03:40.484Z,36.75
2022-11-24T03:06:44.670Z,30.25
2022-11-24T03:09:47.584Z,35.75
2022-11-24T03:12:50.592Z,31.50
2022-11-24T03:15:53.602Z,31.00
2022-11-24T03:18:56.673Z,32.25
2022-11-24T03:21:59.994Z,33.50
2022-11-24T03:25:03.154Z,36.25
2022-11-24T03:28:08.244Z,39.75
2022-11-24T03:31:12.343Z,38.50
2022-11-24T03:34:15.070Z,42.00
2022-11-24T03:37:18.076Z,41.75
2022-11-24T03:40:20.884Z,38.00
2022-11-24T03:43:23.891Z,40.75
2022-11-24T03:46:27.794Z,41.00
2022-11-24T03:49:30.855Z,35.50
2022-11-24T03:52:33.526Z,41.75
2022-11-24T03:55:36.307Z,36.00
2022-11-24T03:58:38.819Z,39.00
2022-11-24T04:01:41.999Z,36.50
2022-11-24T04:04:49.836Z,42.00
2022-11-24T04:07:56.777Z,33.75
2022-11-24T04:10:59.598Z,33.25
2022-11-24T04:14:02.474Z,35.00
2022-11-24T04:17:05.460Z,31.25
2022-11-24T04:20:09.309Z,42.75
2022-11-24T04:23:11.985Z,32.50
2022-11-24T04:26:16.195Z,42.25
2022-11-24T04:29:19.011Z,44.75
2022-11-24T04:32:22.080Z,49.50
2022-11-24T04:35:25.234Z,40.50
2022-11-24T04:39:23.057Z,34.75
2022-11-24T04:42:36.870Z,38.50
2022-11-24T04:46:18.421Z,38.00
2022-11-24T05:04:28.140Z,33.00
2022-11-24T05:07:31.323Z,37.50
2022-11-24T05:10:38.261Z,34.75
2022-11-24T05:13:41.395Z,43.25
2022-11-24T05:16:44.649Z,42.50
2022-11-24T05:19:47.279Z,42.25
2022-11-24T05:22:50.688Z,41.25
2022-11-24T05:25:53.297Z,35.50
2022-11-24T05:28:56.479Z,43.00
2022-11-24T05:31:59.231Z,36.25
2022-11-24T05:35:02.671Z,36.75
2022-11-24T05:38:05.214Z,38.00
2022-11-24T05:41:08.969Z,46.25
2022-11-24T05:44:11.749Z,39.25
2022-11-24T05:47:14.887Z,41.25
2022-11-24T05:50:19.740Z,39.00
2022-11-24T05:53:23.604Z,28.50
2022-11-24T05:56:26.343Z,42.25
2022-11-24T05:59:29.479Z,40.25
2022-11-24T06:02:32.636Z,34.50
2022-11-24T06:05:36.484Z,31.75
2022-11-24T06:09:13.627Z,29.25
2022-11-24T06:12:48.490Z,31.25
2022-11-24T06:22:19.940Z,33.25
2022-11-24T06:38:04.632Z,23.00
2022-11-24T06:41:19.436Z,28.25
2022-11-24T06:44:40.208Z,29.50
2022-11-24T06:47:43.074Z,27.00
2022-11-24T06:50:45.524Z,34.25
2022-11-24T06:53:48.518Z,24.50
2022-11-24T06:56:56.661Z,28.67
2022-11-24T06:59:59.604Z,27.67
2022-11-24T07:03:02.313Z,28.50
2022-11-24T07:06:05.780Z,27.00
2022-11-24T07:09:10.200Z,24.67
2022-11-24T07:12:13.352Z,26.25
2022-11-24T07:15:16.824Z,31.25
2022-11-24T07:18:20.154Z,17.75
2022-11-24T08:04:12.240Z,23.67
2022-11-24T08:12:29.797Z,25.67
2022-11-24T08:15:35.085Z,21.00
2022-11-24T08:18:39.081Z,26.00
2022-11-24T08:21:44.257Z,20.00
2022-11-24T09:32:12.501Z,27.33
2022-11-24T09:35:15.534Z,23.67
2022-11-24T11:06:38.969Z,25.00
2022-11-24T12:39:08.421Z,31.67
2022-11-24T12:42:59.998Z,38.67
2022-11-24T17:01:46.856Z,48.25
2022-11-24T17:04:52.254Z,49.25
2022-11-24T17:07:54.694Z,54.75
2022-11-24T17:10:56.898Z,60.25
2022-11-24T17:13:59.373Z,63.75
2022-11-24T17:17:01.708Z,59.75
2022-11-24T17:20:05.115Z,54.75
2022-11-24T17:23:07.356Z,66.25
2022-11-24T17:26:17.438Z,52.75
2022-11-24T17:29:20.006Z,64.00
2022-11-24T17:32:22.528Z,55.50
2022-11-24T17:35:24.587Z,64.25
2022-11-24T17:38:28.302Z,54.75
2022-11-24T17:41:31.023Z,59.50
2022-11-24T17:44:33.837Z,49.50
2022-11-24T17:47:36.166Z,47.00
2022-11-24T17:50:38.487Z,51.25
2022-11-24T17:53:42.582Z,62.75
2022-11-24T17:56:45.965Z,53.25
2022-11-24T17:59:48.130Z,59.25
2022-11-24T18:02:50.610Z,51.50
2022-11-24T18:05:53.007Z,57.00
2022-11-24T18:08:58.763Z,57.75
2022-11-24T18:12:01.031Z,43.50
2022-11-24T18:15:03.774Z,49.25
2022-11-24T18:18:05.910Z,57.25
2022-11-24T18:21:15.103Z,48.25
2022-11-24T18:24:22.548Z,48.50
2022-11-24T18:27:26.467Z,47.75
2022-11-24T18:30:28.583Z,53.00
2022-11-24T18:33:31.141Z,36.75
2022-11-24T18:36:34.564Z,55.75
2022-11-24T18:39:37.179Z,50.00
2022-11-24T18:42:39.831Z,53.00
2022-11-24T18:45:42.428Z,45.75
2022-11-24T18:48:45.383Z,46.25
2022-11-24T18:51:47.913Z,58.25
2022-11-24T18:54:50.169Z,54.75
2022-11-24T18:57:52.435Z,50.50
2022-11-24T19:00:55.133Z,45.75
2022-11-24T19:03:59.480Z,53.75
2022-11-24T19:07:01.609Z,50.25
2022-11-24T19:10:04.330Z,62.00
2022-11-24T19:13:06.436Z,48.75
2022-11-24T19:16:12.773Z,49.75
2022-11-24T19:19:16.495Z,46.50
2022-11-24T19:22:19.008Z,52.50
2022-11-24T19:25:21.556Z,47.00
2022-11-24T19:28:24.566Z,57.50
2022-11-24T19:31:26.940Z,50.50
2022-11-24T19:34:29.554Z,62.25
2022-11-24T19:37:31.712Z,49.00
2022-11-24T19:40:34.095Z,67.00
2022-11-24T19:43:38.071Z,60.25
2022-11-24T19:46:41.219Z,72.25
2022-11-24T19:49:43.426Z,66.50
2022-11-24T19:52:47.846Z,78.75
2022-11-24T19:55:50.064Z,54.50
2022-11-24T19:58:53.970Z,71.25
2022-11-24T20:01:57.901Z,67.25
2022-11-24T20:05:00.766Z,81.50
2022-11-24T20:08:09.612Z,81.75
2022-11-24T20:11:17.419Z,71.25
2022-11-24T20:14:20.643Z,76.25
2022-11-24T20:17:25.946Z,57.50
2022-11-24T20:20:28.266Z,66.75
2022-11-24T20:23:30.811Z,67.50
2022-11-24T20:26:36.603Z,73.50
2022-11-24T20:29:45.216Z,74.75
2022-11-24T20:32:48.956Z,73.50
2022-11-24T20:35:51.447Z,64.25
2022-11-24T20:38:54.312Z,70.00
2022-11-24T20:41:56.914Z,72.00
2022-11-24T20:45:01.340Z,77.75
2022-11-24T20:48:05.731Z,74.00
2022-11-24T20:51:14.547Z,76.75
2022-11-24T20:54:24.511Z,61.75
2022-11-24T20:57:26.661Z,77.25
2022-11-24T21:00:29.275Z,71.25
2022-11-24T21:03:31.726Z,63.50
2022-11-24T21:06:35.605Z,73.50
2022-11-24T21:09:38.733Z,80.00
2022-11-24T21:12:40.997Z,73.75
2022-11-24T21:15:43.442Z,72.25
2022-11-24T21:18:47.804Z,71.50
2022-11-24T21:21:50.402Z,66.00
2022-11-24T21:24:52.903Z,62.50
2022-11-24T21:27:55.098Z,61.75
2022-11-24T21:31:05.805Z,66.00
2022-11-24T21:34:09.054Z,75.50
2022-11-24T21:37:11.631Z,75.50
2022-11-24T21:40:15.206Z,60.50
2022-11-24T21:43:17.808Z,56.25
2022-11-24T21:46:20.070Z,69.00
2022-11-24T21:49:22.710Z,55.50
2022-11-24T21:52:25.110Z,57.75
2022-11-24T21:55:27.747Z,69.00
2022-11-24T21:58:30.113Z,68.50
2022-11-24T22:01:32.937Z,56.50
2022-11-24T22:04:35.509Z,52.25
2022-11-24T22:07:38.083Z,62.00
2022-11-24T22:10:40.207Z,59.75
2022-11-24T22:13:43.667Z,56.50
2022-11-24T22:16:46.260Z,64.75
2022-11-24T22:19:48.616Z,59.50
2022-11-24T22:22:50.586Z,74.00
2022-11-24T22:25:52.862Z,48.50
2022-11-24T22:28:55.863Z,64.25
2022-11-24T22:31:58.506Z,65.75
2022-11-24T22:35:00.648Z,64.75
2022-11-24T22:38:03.083Z,55.50
2022-11-24T22:41:16.533Z,64.75
2022-11-24T22:44:18.833Z,51.00
2022-11-24T22:47:20.929Z,55.25
2022-11-24T22:50:23.293Z,65.00
2022-11-24T22:53:25.346Z,67.25
2022-11-24T22:56:28.258Z,59.75
2022-11-24T22:59:30.390Z,60.25
2022-11-24T23:02:32.807Z,63.25
2022-11-24T23:05:35.123Z,67.50
2022-11-24T23:08:37.616Z,69.25
2022-11-24T23:11:40.902Z,56.00
2022-11-24T23:14:43.234Z,61.75
2022-11-24T23:17:45.350Z,62.75
2022-11-24T23:20:47.975Z,71.50
2022-11-24T23:23:50.886Z,70.50
2022-11-24T23:26:53.388Z,61.25
2022-11-24T23:29:55.511Z,58.00
2022-11-24T23:32:57.850Z,62.75
2022-11-24T23:36:02.194Z,61.50
2022-11-24T23:39:10.848Z,63.00
2022-11-24T23:42:13.365Z,69.00
2022-11-24T23:45:15.690Z,69.75
2022-11-24T23:48:18.000Z,58.25
2022-11-24T23:51:23.451Z,50.50
2022-11-24T23:57:45.221Z,56.75
